Time;durP1;ratioP1;P1;durP2;ratioP2;P2;SDS_P1;SDS_P2;PMS_P1;PMS_P2;Temp;Humidity;BMP_temperature;BMP_pressure;BME280_temperature;BME280_humidity;BME280_pressure;Samples;Min_cycle;Max_cycle;Signal;HPM_P1;HPM_P2
2021/10/08 00:02:12;;;;;;;15.30;11.87;;;9.50;1.00;10.30;101810.00;;;;5047514;28;20517;-80
2021/10/08 00:04:41;;;;;;;15.83;13.00;;;9.50;1.00;10.30;101813.00;;;;5034785;28;20736;-79
2021/10/08 00:07:09;;;;;;;16.07;12.00;;;9.50;1.00;10.20;101818.00;;;;5034147;28;20480;-79
2021/10/08 00:09:38;;;;;;;15.33;11.70;;;9.50;1.00;10.20;101807.00;;;;5020601;28;20467;-76
2021/10/08 00:12:07;;;;;;;13.90;11.17;;;9.50;1.00;10.20;101814.00;;;;5014565;28;20501;-75
2021/10/08 00:14:36;;;;;;;14.03;12.50;;;9.40;1.00;10.20;101824.00;;;;5015044;28;20450;-76
2021/10/08 00:17:05;;;;;;;17.20;12.70;;;9.40;1.00;10.20;101831.00;;;;5014848;28;20496;-77
2021/10/08 00:19:34;;;;;;;16.80;11.40;;;9.50;1.00;10.20;101824.00;;;;5023001;28;20458;-75
2021/10/08 00:22:03;;;;;;;15.20;12.57;;;9.40;1.00;10.20;101774.00;;;;5031819;28;20540;-76
2021/10/08 00:24:31;;;;;;;13.50;11.90;;;9.40;1.00;10.10;101813.00;;;;5046005;28;20470;-77
2021/10/08 00:27:00;;;;;;;13.07;11.53;;;9.40;1.00;10.20;101832.00;;;;5022286;28;20453;-76
2021/10/08 00:29:28;;;;;;;14.93;11.33;;;9.40;1.00;10.20;101834.00;;;;5029116;28;20441;-76
2021/10/08 00:31:56;;;;;;;13.37;10.90;;;9.50;1.00;10.20;101816.00;;;;5020125;28;20468;-77
2021/10/08 00:34:25;;;;;;;13.27;11.87;;;9.50;1.00;10.20;101815.00;;;;5027159;28;20481;-76
2021/10/08 00:36:55;;;;;;;16.27;10.80;;;9.50;1.00;10.20;101815.00;;;;5014727;28;20544;-75
2021/10/08 00:39:25;;;;;;;12.50;11.20;;;9.50;1.00;10.20;101821.00;;;;5038812;28;20461;-74
2021/10/08 00:41:54;;;;;;;13.67;11.53;;;9.50;1.00;10.20;101802.00;;;;5027168;28;20497;-74
2021/10/08 00:44:22;;;;;;;13.13;10.80;;;9.60;1.00;10.20;101832.00;;;;5020476;28;20457;-76
2021/10/08 00:46:51;;;;;;;14.27;12.17;;;9.50;1.00;10.10;101797.00;;;;5027450;28;20478;-76
2021/10/08 00:49:19;;;;;;;13.90;10.87;;;9.40;1.00;10.10;101813.00;;;;5009754;28;20469;-75
2021/10/08 00:51:47;;;;;;;17.73;11.97;;;9.40;1.00;10.10;101817.00;;;;5007148;28;20556;-76
2021/10/08 00:54:17;;;;;;;18.53;11.10;;;9.40;1.00;10.00;101818.00;;;;5005094;28;20461;-75
2021/10/08 00:56:46;;;;;;;14.23;11.20;;;9.30;1.00;10.00;101823.00;;;;5004723;28;20503;-75
2021/10/08 00:59:14;;;;;;;12.67;11.33;;;9.30;1.00;10.00;101815.00;;;;5001760;28;20595;-75
2021/10/08 01:01:42;;;;;;;13.37;11.37;;;9.30;1.00;10.00;101809.00;;;;5005103;28;20461;-75
2021/10/08 01:04:15;;;;;;;12.70;10.73;;;9.20;1.00;10.00;101823.00;;;;5003998;28;20462;-75
2021/10/08 01:06:43;;;;;;;16.40;12.40;;;9.20;1.00;9.90;101826.00;;;;5004466;28;20511;-76
2021/10/08 01:09:12;;;;;;;14.13;12.17;;;9.20;1.00;9.90;101824.00;;;;5004854;28;20480;-75
2021/10/08 01:11:43;;;;;;;16.90;11.40;;;9.10;1.00;9.90;101830.00;;;;5005865;28;20480;-77
2021/10/08 01:14:12;;;;;;;14.03;11.47;;;9.10;1.00;9.90;101824.00;;;;5005051;28;20493;-75
2021/10/08 01:16:48;;;;;;;14.63;10.37;;;9.10;1.00;10.00;101827.00;;;;5005489;28;21056;-77
2021/10/08 01:19:17;;;;;;;13.47;10.10;;;9.20;1.00;10.00;101815.00;;;;5005660;28;20465;-77
2021/10/08 01:21:55;;;;;;;10.83;9.70;;;9.30;1.00;10.00;101822.00;;;;5005239;28;20454;-77
2021/10/08 01:24:24;;;;;;;11.40;10.20;;;9.40;1.00;10.00;101828.00;;;;5005722;28;20499;-77
2021/10/08 01:26:55;;;;;;;13.07;10.93;;;9.40;1.00;9.80;101827.00;;;;5004920;28;20551;-76
2021/10/08 01:29:25;;;;;;;12.50;10.47;;;9.30;1.00;10.00;101837.00;;;;5003445;28;20450;-77
2021/10/08 01:31:53;;;;;;;12.87;11.00;;;9.30;1.00;10.00;101820.00;;;;5004872;28;20464;-80
2021/10/08 01:34:22;;;;;;;11.13;9.93;;;9.30;1.00;9.90;101813.00;;;;5021289;28;20481;-80
2021/10/08 01:36:57;;;;;;;12.97;10.60;;;9.20;1.00;9.80;101811.00;;;;5004305;28;20860;-79
2021/10/08 01:39:25;;;;;;;11.60;9.23;;;9.30;1.00;9.80;101759.00;;;;5019197;28;20512;-79
2021/10/08 01:41:54;;;;;;;11.80;10.60;;;9.30;1.00;9.80;101793.00;;;;5005604;28;20458;-76
2021/10/08 01:44:25;;;;;;;12.80;10.63;;;9.20;1.00;9.80;101788.00;;;;5020820;28;20466;-78
2021/10/08 01:46:54;;;;;;;12.50;10.33;;;9.20;1.00;9.80;101803.00;;;;5003342;28;20515;-77
2021/10/08 01:49:28;;;;;;;18.70;13.47;;;9.20;1.00;9.80;101702.00;;;;5004378;28;20453;-77
2021/10/08 01:52:00;;;;;;;14.37;11.10;;;9.10;1.00;9.80;101816.00;;;;5021405;28;20519;-77
2021/10/08 01:54:34;;;;;;;15.40;11.10;;;9.10;1.00;9.80;101813.00;;;;5004582;28;20515;-77
2021/10/08 01:57:03;;;;;;;13.43;11.00;;;9.10;1.00;9.70;101805.00;;;;5005494;28;20576;-76
2021/10/08 01:59:32;;;;;;;16.33;13.40;;;9.00;1.00;9.70;101805.00;;;;5020768;28;20477;-80
2021/10/08 02:02:04;;;;;;;13.50;11.67;;;9.00;1.00;9.70;101804.00;;;;5004955;28;20477;-79
2021/10/08 02:04:32;;;;;;;14.30;11.43;;;9.00;1.00;9.70;101823.00;;;;5003840;28;20511;-80
2021/10/08 02:07:02;;;;;;;13.20;11.53;;;9.00;1.00;9.60;101818.00;;;;5007040;28;20496;-78
2021/10/08 02:09:31;;;;;;;13.10;10.93;;;8.90;1.00;9.60;101808.00;;;;5006169;28;20512;-76
2021/10/08 02:12:00;;;;;;;14.67;11.40;;;8.90;1.00;9.60;101806.00;;;;5007136;28;20484;-74
2021/10/08 02:14:32;;;;;;;11.57;10.40;;;8.90;1.00;9.60;101793.00;;;;5016696;28;20458;-79
2021/10/08 02:17:00;;;;;;;11.40;10.20;;;8.80;1.00;9.60;101797.00;;;;5038404;28;20509;-79
2021/10/08 02:19:28;;;;;;;15.20;10.03;;;8.80;1.00;9.60;101790.00;;;;5012631;28;20669;-77
2021/10/08 02:22:03;;;;;;;11.50;10.07;;;8.90;1.00;9.60;101782.00;;;;5022411;28;21357;-79
2021/10/08 02:24:35;;;;;;;11.23;10.00;;;8.90;1.00;9.60;101797.00;;;;5006056;28;20974;-76
2021/10/08 02:27:04;;;;;;;11.50;9.80;;;8.90;1.00;9.70;101791.00;;;;5022263;28;20564;-79
2021/10/08 02:29:32;;;;;;;10.67;9.63;;;8.90;1.00;9.60;101810.00;;;;5004208;28;20492;-75
2021/10/08 02:32:04;;;;;;;11.57;10.20;;;8.90;1.00;9.60;101638.00;;;;5004533;28;20493;-75
2021/10/08 02:34:33;;;;;;;11.50;9.20;;;8.90;1.00;9.60;101795.00;;;;5021459;28;20545;-76
2021/10/08 02:37:04;;;;;;;10.50;9.50;;;8.90;1.00;9.60;101803.00;;;;5004567;28;20585;-76
2021/10/08 02:39:33;;;;;;;12.73;10.67;;;8.90;1.00;9.60;101812.00;;;;5003413;28;20481;-75
2021/10/08 02:42:02;;;;;;;11.27;10.03;;;8.90;1.00;9.60;101791.00;;;;5019537;28;20446;-75
2021/10/08 02:44:31;;;;;;;11.33;9.97;;;8.90;1.00;9.60;101800.00;;;;5018753;28;21045;-75
2021/10/08 02:46:59;;;;;;;13.50;11.40;;;8.90;1.00;9.50;101803.00;;;;5003122;28;20482;-76
2021/10/08 02:49:33;;;;;;;13.53;11.00;;;8.90;1.00;9.50;101738.00;;;;5003038;28;20453;-76
2021/10/08 02:52:03;;;;;;;13.23;10.20;;;8.90;1.00;9.60;101683.00;;;;5023767;28;20508;-75
2021/10/08 02:54:32;;;;;;;12.90;10.70;;;8.90;1.00;9.30;101732.00;;;;5007088;28;20549;-75
2021/10/08 02:57:01;;;;;;;13.40;11.30;;;8.90;1.00;9.50;101799.00;;;;5028287;28;20492;-75
2021/10/08 02:59:30;;;;;;;13.73;10.50;;;8.90;1.00;9.50;101796.00;;;;5030208;28;20473;-75
2021/10/08 03:01:58;;;;;;;14.90;10.80;;;8.90;1.00;9.50;101813.00;;;;5035319;28;20489;-79
2021/10/08 03:04:27;;;;;;;11.60;10.40;;;8.90;1.00;9.50;101793.00;;;;5038895;28;20785;-76
2021/10/08 03:06:56;;;;;;;15.43;10.80;;;8.80;1.00;9.50;101789.00;;;;5008717;28;20969;-79
2021/10/08 03:09:27;;;;;;;12.07;10.80;;;8.80;1.00;9.40;101753.00;;;;5009469;28;20556;-78
2021/10/08 03:11:56;;;;;;;14.17;11.63;;;8.80;1.00;9.40;101767.00;;;;5008217;28;20900;-78
2021/10/08 03:14:24;;;;;;;15.60;11.93;;;8.80;1.00;9.40;101778.00;;;;5023749;28;20453;-76
2021/10/08 03:16:53;;;;;;;13.73;10.77;;;8.80;1.00;9.40;101784.00;;;;5007442;28;20579;-74
2021/10/08 03:19:22;;;;;;;13.93;10.87;;;8.70;1.00;9.40;101783.00;;;;5007924;28;20470;-77
2021/10/08 03:21:50;;;;;;;13.93;10.83;;;8.70;1.00;9.40;101785.00;;;;5009485;28;20481;-76
2021/10/08 03:24:19;;;;;;;13.73;11.20;;;8.70;1.00;9.40;101788.00;;;;5023097;28;20486;-76
2021/10/08 03:26:48;;;;;;;11.23;10.13;;;8.70;1.00;9.40;101795.00;;;;5022500;28;20465;-76
2021/10/08 03:29:17;;;;;;;12.47;10.63;;;8.80;1.00;9.40;101788.00;;;;5004973;28;20552;-76
2021/10/08 03:31:46;;;;;;;12.70;11.30;;;8.80;1.00;9.40;101798.00;;;;5005362;28;21365;-75
2021/10/08 03:34:14;;;;;;;13.53;11.50;;;8.80;1.00;9.40;101784.00;;;;5005919;28;20545;-76
2021/10/08 03:36:46;;;;;;;17.63;11.27;;;8.80;1.00;9.40;101742.00;;;;5006130;28;20552;-76
2021/10/08 03:39:17;;;;;;;15.00;10.67;;;8.80;1.00;9.40;101805.00;;;;5006462;28;20856;-76
2021/10/08 03:41:46;;;;;;;12.77;10.70;;;8.80;1.00;9.40;101778.00;;;;5005828;28;20449;-76
2021/10/08 03:44:16;;;;;;;14.80;11.70;;;8.80;1.00;9.40;101791.00;;;;5004518;28;20472;-75
2021/10/08 03:46:47;;;;;;;11.77;10.57;;;8.80;1.00;9.40;101789.00;;;;5004306;28;20477;-76
2021/10/08 03:49:16;;;;;;;16.17;10.50;;;8.80;1.00;9.40;101808.00;;;;5006663;28;20453;-77
2021/10/08 03:51:48;;;;;;;13.13;11.30;;;8.70;1.00;9.40;101742.00;;;;5007395;28;20461;-76
2021/10/08 03:54:22;;;;;;;12.43;11.10;;;8.80;1.00;9.40;101795.00;;;;5006663;28;20514;-76
2021/10/08 03:56:50;;;;;;;13.07;11.77;;;8.80;1.00;9.40;101763.00;;;;5007333;28;20469;-77
2021/10/08 03:59:20;;;;;;;16.23;11.40;;;8.90;1.00;9.50;101798.00;;;;5006915;28;20482;-76
2021/10/08 04:01:50;;;;;;;15.37;11.47;;;8.90;1.00;9.60;101799.00;;;;5006405;28;20465;-77
2021/10/08 04:04:18;;;;;;;12.77;11.23;;;9.00;1.00;9.50;101712.00;;;;5006663;28;20958;-75
2021/10/08 04:06:48;;;;;;;13.50;11.57;;;9.00;1.00;9.50;101811.00;;;;5006110;28;20500;-76
2021/10/08 04:09:17;;;;;;;13.00;11.70;;;9.00;1.00;9.60;101810.00;;;;5005638;28;20450;-75
2021/10/08 04:11:48;;;;;;;12.03;10.60;;;9.10;1.00;9.50;101768.00;;;;5006287;28;20481;-75
2021/10/08 04:14:18;;;;;;;13.50;10.97;;;9.00;1.00;9.50;101770.00;;;;5008225;28;20458;-75
2021/10/08 04:16:49;;;;;;;16.50;12.27;;;9.00;1.00;9.50;101819.00;;;;5003967;28;20482;-75
2021/10/08 04:19:20;;;;;;;13.23;11.50;;;9.00;1.00;9.50;101821.00;;;;5005590;28;20532;-76
2021/10/08 04:21:52;;;;;;;21.00;12.53;;;9.20;1.00;9.60;101808.00;;;;5007228;28;20480;-77
2021/10/08 04:24:20;;;;;;;15.10;11.20;;;9.10;1.00;9.60;101823.00;;;;5009445;28;20458;-76
2021/10/08 04:26:49;;;;;;;13.00;11.67;;;9.10;1.00;9.60;101823.00;;;;5023640;28;20490;-75
2021/10/08 04:29:17;;;;;;;14.43;12.30;;;9.10;1.00;9.60;101831.00;;;;5018836;28;20453;-76
2021/10/08 04:31:46;;;;;;;12.57;11.20;;;9.10;1.00;9.60;101821.00;;;;5022246;28;20523;-75
2021/10/08 04:34:16;;;;;;;12.90;11.60;;;9.10;1.00;9.60;101820.00;;;;5024749;28;20450;-75
2021/10/08 04:36:44;;;;;;;13.53;12.10;;;9.10;1.00;9.60;101836.00;;;;5005626;28;20527;-77
2021/10/08 04:39:13;;;;;;;13.53;12.13;;;9.00;1.00;9.60;101835.00;;;;5005129;28;20481;-77
2021/10/08 04:41:41;;;;;;;15.43;12.07;;;9.10;1.00;9.60;101831.00;;;;5005949;28;20450;-77
2021/10/08 04:44:13;;;;;;;13.63;11.90;;;9.10;1.00;9.60;101833.00;;;;5004651;28;20520;-77
2021/10/08 04:46:42;;;;;;;15.43;12.87;;;9.10;1.00;9.60;101833.00;;;;5003308;28;20474;-78
2021/10/08 04:49:11;;;;;;;11.90;10.70;;;9.10;1.00;9.60;101802.00;;;;5003169;28;20454;-75
2021/10/08 04:51:43;;;;;;;12.67;11.37;;;9.10;1.00;9.60;101822.00;;;;5004074;28;20457;-76
2021/10/08 04:54:12;;;;;;;16.37;12.00;;;9.10;1.00;9.60;101821.00;;;;5007159;28;20457;-76
2021/10/08 04:56:40;;;;;;;12.70;11.40;;;9.10;1.00;9.60;101831.00;;;;5002843;28;20898;-74
2021/10/08 04:59:09;;;;;;;15.37;12.13;;;9.10;1.00;9.60;101816.00;;;;5003717;28;20465;-76
2021/10/08 05:01:38;;;;;;;16.43;12.03;;;9.20;1.00;9.60;101801.00;;;;5002371;28;20548;-76
2021/10/08 05:04:07;;;;;;;13.73;12.33;;;9.10;1.00;9.60;101827.00;;;;5004454;28;20466;-76
2021/10/08 05:06:35;;;;;;;14.33;12.77;;;9.10;1.00;9.60;101833.00;;;;5002168;28;20482;-76
2021/10/08 05:09:05;;;;;;;16.30;12.77;;;9.00;1.00;9.50;101838.00;;;;5002262;28;20461;-76
2021/10/08 05:11:34;;;;;;;15.40;12.57;;;9.00;1.00;9.60;101832.00;;;;5008689;28;20457;-75
2021/10/08 05:14:02;;;;;;;14.33;12.53;;;9.00;1.00;9.10;101839.00;;;;5021743;28;21021;-76
2021/10/08 05:16:35;;;;;;;14.17;12.60;;;9.00;1.00;9.30;101830.00;;;;5005708;28;20548;-78
2021/10/08 05:19:04;;;;;;;12.87;11.47;;;9.00;1.00;9.50;101822.00;;;;5007119;28;20454;-77
2021/10/08 05:21:34;;;;;;;13.93;12.43;;;9.10;1.00;9.50;101841.00;;;;5007010;28;20472;-75
2021/10/08 05:24:05;;;;;;;19.73;12.70;;;9.20;1.00;9.50;101833.00;;;;5021284;28;20453;-76
2021/10/08 05:26:33;;;;;;;14.23;11.27;;;9.00;1.00;9.60;101790.00;;;;5005973;28;20469;-77
2021/10/08 05:29:07;;;;;;;15.70;12.20;;;9.00;1.00;9.50;101830.00;;;;5022301;28;20481;-76
2021/10/08 05:31:35;;;;;;;15.80;12.93;;;9.00;1.00;9.50;101834.00;;;;5006849;28;20446;-74
2021/10/08 05:34:04;;;;;;;15.73;13.10;;;9.00;1.00;9.50;101837.00;;;;5006224;28;20450;-75
2021/10/08 05:36:32;;;;;;;15.20;12.70;;;9.00;1.00;9.60;101838.00;;;;5022997;28;21013;-76
2021/10/08 05:39:00;;;;;;;16.33;13.17;;;9.00;1.00;9.50;101831.00;;;;5006078;28;21075;-77
2021/10/08 05:41:30;;;;;;;16.87;12.70;;;9.00;1.00;9.60;101841.00;;;;5009045;28;20883;-77
2021/10/08 05:43:59;;;;;;;17.73;12.70;;;9.10;1.00;9.50;101832.00;;;;5007503;28;20461;-76
2021/10/08 05:46:27;;;;;;;13.50;12.07;;;9.10;1.00;9.60;101836.00;;;;5005868;28;20481;-76
2021/10/08 05:48:57;;;;;;;14.57;12.47;;;9.10;1.00;9.60;101823.00;;;;5022756;28;20446;-77
2021/10/08 05:51:25;;;;;;;13.13;11.77;;;9.10;1.00;9.60;101838.00;;;;5008203;28;20465;-75
2021/10/08 05:53:54;;;;;;;17.73;12.77;;;9.10;1.00;9.60;101796.00;;;;5010077;28;20453;-77
2021/10/08 05:56:22;;;;;;;15.80;12.30;;;9.10;1.00;9.70;101835.00;;;;5009646;28;20481;-75
2021/10/08 05:58:52;;;;;;;19.13;13.20;;;9.20;1.00;9.70;101832.00;;;;5019147;28;20461;-80
2021/10/08 06:01:21;;;;;;;14.77;12.67;;;9.30;1.00;9.80;101834.00;;;;5008847;28;20992;-74
2021/10/08 06:03:49;;;;;;;17.70;12.10;;;9.20;1.00;9.80;101833.00;;;;5006076;28;20496;-76
2021/10/08 06:06:17;;;;;;;21.50;12.83;;;9.20;1.00;9.90;101828.00;;;;5005161;28;20481;-75
2021/10/08 06:08:46;;;;;;;18.07;13.23;;;9.30;1.00;10.00;101835.00;;;;5027953;28;20445;-76
2021/10/08 06:11:16;;;;;;;14.13;12.50;;;9.40;1.00;10.00;101838.00;;;;5028332;28;20466;-75
2021/10/08 06:13:46;;;;;;;16.03;12.37;;;9.40;1.00;10.10;101845.00;;;;5014261;28;20523;-76
2021/10/08 06:16:16;;;;;;;14.23;11.50;;;9.50;1.00;10.20;101704.00;;;;5009369;28;20478;-77
2021/10/08 06:18:44;;;;;;;16.80;12.10;;;9.50;1.00;10.20;101839.00;;;;5006584;28;20822;-75
2021/10/08 06:21:13;;;;;;;13.50;11.87;;;9.60;1.00;10.30;101841.00;;;;5009135;28;20577;-77
2021/10/08 06:23:41;;;;;;;17.30;13.27;;;9.60;1.00;10.30;101839.00;;;;5007214;28;20461;-76
2021/10/08 06:26:10;;;;;;;14.80;11.23;;;9.70;1.00;10.40;101832.00;;;;5004765;28;20551;-75
2021/10/08 06:28:39;;;;;;;15.40;11.93;;;9.80;1.00;10.50;101829.00;;;;5004049;28;20450;-75
2021/10/08 06:31:07;;;;;;;16.33;12.13;;;9.80;1.00;10.50;101829.00;;;;5006135;28;20458;-77
2021/10/08 06:33:42;;;;;;;15.60;12.40;;;9.80;1.00;10.60;101843.00;;;;5004978;28;20462;-77
2021/10/08 06:36:11;;;;;;;18.20;12.30;;;9.90;1.00;10.70;101839.00;;;;5008170;28;20714;-76
2021/10/08 06:38:40;;;;;;;20.83;14.03;;;10.00;1.00;10.70;101832.00;;;;5010712;28;20843;-75
2021/10/08 06:41:09;;;;;;;23.87;14.53;;;10.00;1.00;10.80;101813.00;;;;5009211;28;20474;-75
2021/10/08 06:43:38;;;;;;;16.73;11.93;;;10.10;1.00;10.80;101830.00;;;;5031143;28;20454;-77
2021/10/08 06:46:21;;;;;;;15.10;12.27;;;10.20;1.00;10.90;101842.00;;;;5018879;28;21040;-77
2021/10/08 06:48:51;;;;;;;19.73;12.30;;;10.20;1.00;11.00;101850.00;;;;5014889;28;20461;-76
2021/10/08 06:51:21;;;;;;;16.60;12.27;;;10.30;1.00;11.00;101828.00;;;;5016347;28;20485;-76
2021/10/08 06:53:49;;;;;;;17.87;12.20;;;10.40;1.00;11.10;101834.00;;;;5017375;28;20453;-77
2021/10/08 06:56:19;;;;;;;12.63;11.30;;;10.50;1.00;11.20;101834.00;;;;5030858;28;20998;-76
2021/10/08 06:59:08;;;;;;;13.87;11.80;;;10.70;1.00;11.30;101800.00;;;;5010740;28;20444;-76
2021/10/08 07:01:37;;;;;;;13.30;10.90;;;10.90;1.00;11.30;101843.00;;;;5011481;28;20482;-76
2021/10/08 07:04:07;;;;;;;12.53;11.23;;;10.70;1.00;11.30;101823.00;;;;5010479;28;20541;-77
2021/10/08 07:06:40;;;;;;;13.97;10.33;;;10.70;1.00;11.40;101771.00;;;;5007492;28;20481;-76
2021/10/08 07:09:14;;;;;;;16.90;12.27;;;10.70;1.00;11.50;101821.00;;;;5007247;28;20461;-76
2021/10/08 07:11:43;;;;;;;19.63;11.50;;;10.70;1.00;11.50;101851.00;;;;5024928;28;20454;-77
2021/10/08 07:14:12;;;;;;;13.50;11.30;;;10.80;1.00;11.50;101846.00;;;;5006589;28;20462;-76
2021/10/08 07:16:40;;;;;;;17.07;11.60;;;10.80;1.00;11.50;101828.00;;;;5007961;28;20997;-77
2021/10/08 07:19:13;;;;;;;16.43;11.57;;;10.80;1.00;11.60;101811.00;;;;5010331;28;21201;-75
2021/10/08 07:21:42;;;;;;;16.13;11.93;;;10.90;1.00;11.60;101824.00;;;;5028316;28;21109;-76
2021/10/08 07:24:12;;;;;;;13.97;12.00;;;10.90;1.00;11.70;101846.00;;;;5008266;28;20468;-75
2021/10/08 07:26:40;;;;;;;12.67;11.37;;;11.00;1.00;11.70;101847.00;;;;5003050;28;20968;-74
2021/10/08 07:29:08;;;;;;;15.20;10.10;;;11.00;1.00;11.80;101849.00;;;;5005156;28;20450;-76
2021/10/08 07:31:37;;;;;;;16.33;11.87;;;11.10;1.00;11.90;101851.00;;;;5007468;28;20464;-77
2021/10/08 07:34:05;;;;;;;18.73;11.10;;;11.10;1.00;11.80;101843.00;;;;5005140;28;20454;-77
2021/10/08 07:36:35;;;;;;;15.50;11.40;;;11.20;1.00;11.90;101854.00;;;;5012549;28;20482;-74
2021/10/08 07:39:05;;;;;;;13.63;11.17;;;11.20;1.00;11.90;101847.00;;;;5013156;28;20540;-75
2021/10/08 07:41:34;;;;;;;12.80;10.97;;;11.20;1.00;11.90;101711.00;;;;5013464;28;20470;-77
2021/10/08 07:44:02;;;;;;;13.13;10.50;;;11.30;1.00;12.00;101854.00;;;;5015527;28;20457;-73
2021/10/08 07:46:30;;;;;;;14.87;10.70;;;11.40;1.00;12.10;101838.00;;;;5012369;28;20484;-75
2021/10/08 07:48:59;;;;;;;12.97;10.60;;;11.50;1.00;12.10;101859.00;;;;5025852;28;20441;-76
2021/10/08 07:51:29;;;;;;;12.90;10.30;;;11.60;1.00;12.20;101857.00;;;;5025737;28;20458;-76
2021/10/08 07:53:59;;;;;;;11.60;9.70;;;11.60;1.00;12.30;101860.00;;;;5020583;28;20467;-77
2021/10/08 07:56:27;;;;;;;12.97;10.17;;;11.70;1.00;12.20;101856.00;;;;5008397;28;20993;-77
2021/10/08 07:58:56;;;;;;;13.17;10.97;;;11.80;1.00;12.30;101834.00;;;;5008264;28;20453;-76
2021/10/08 08:01:24;;;;;;;14.87;10.40;;;11.80;1.00;12.40;101863.00;;;;5009494;28;20481;-76
2021/10/08 08:03:53;;;;;;;16.30;9.70;;;11.80;1.00;12.50;101860.00;;;;5008512;28;20454;-75
2021/10/08 08:06:21;;;;;;;11.60;9.93;;;11.90;1.00;12.50;101874.00;;;;5007307;28;20888;-76
2021/10/08 08:08:50;;;;;;;13.30;10.33;;;12.00;1.00;12.60;101865.00;;;;5008731;28;20515;-76
2021/10/08 08:11:19;;;;;;;13.23;10.10;;;12.00;1.00;12.60;101864.00;;;;5006065;28;20470;-78
2021/10/08 08:13:48;;;;;;;11.57;10.27;;;12.10;1.00;12.70;101875.00;;;;5020697;28;20470;-74
2021/10/08 08:16:16;;;;;;;13.00;10.40;;;12.20;1.00;12.70;101873.00;;;;5032201;28;20496;-76
2021/10/08 08:18:45;;;;;;;13.20;9.87;;;12.30;1.00;12.70;101861.00;;;;5033018;28;20458;-77
2021/10/08 08:21:13;;;;;;;13.03;9.60;;;12.30;1.00;12.80;101859.00;;;;5018571;28;20469;-75
2021/10/08 08:23:41;;;;;;;13.00;11.00;;;12.40;1.00;12.90;101864.00;;;;5012870;28;20446;-79
2021/10/08 08:26:10;;;;;;;11.67;10.17;;;12.50;1.00;13.00;101859.00;;;;5011882;28;20484;-76
2021/10/08 08:28:39;;;;;;;17.07;11.07;;;12.60;1.00;13.10;101861.00;;;;5008602;28;20955;-76
2021/10/08 08:31:09;;;;;;;11.77;10.43;;;12.70;1.00;13.10;101864.00;;;;5007104;28;20465;-76
2021/10/08 08:33:38;;;;;;;10.70;9.60;;;12.70;1.00;13.20;101859.00;;;;5007340;28;20568;-79
2021/10/08 08:36:06;;;;;;;10.77;9.20;;;12.80;1.00;13.30;101806.00;;;;5022681;28;20484;-77
2021/10/08 08:38:35;;;;;;;10.47;9.00;;;12.90;1.00;13.30;101864.00;;;;5006965;28;20537;-80
2021/10/08 08:41:03;;;;;;;10.20;8.80;;;13.00;1.00;13.20;101726.00;;;;5006198;28;20454;-76
2021/10/08 08:43:32;;;;;;;14.50;9.53;;;13.10;1.00;13.50;101841.00;;;;5008040;28;20461;-78
2021/10/08 08:46:01;;;;;;;12.33;9.17;;;13.30;1.00;13.60;101840.00;;;;5006408;28;21058;-76
2021/10/08 08:48:30;;;;;;;19.03;10.70;;;13.30;1.00;13.60;101860.00;;;;5006368;28;20872;-78
2021/10/08 08:50:58;;;;;;;12.00;9.27;;;13.30;1.00;13.70;101860.00;;;;5006000;28;20453;-78
2021/10/08 08:53:27;;;;;;;14.07;8.77;;;13.30;1.00;13.70;101853.00;;;;5005976;28;20450;-77
2021/10/08 08:55:55;;;;;;;11.17;9.70;;;13.40;1.00;13.80;101851.00;;;;5006225;28;20516;-75
2021/10/08 08:58:23;;;;;;;11.27;9.40;;;13.50;1.00;13.80;101839.00;;;;5004814;28;20540;-77
2021/10/08 09:01:01;;;;;;;12.03;9.30;;;13.60;1.00;13.90;101860.00;;;;5005124;28;20550;-78
2021/10/08 09:03:30;;;;;;;11.27;8.80;;;13.70;1.00;14.00;101861.00;;;;5005580;28;20454;-77
2021/10/08 09:05:59;;;;;;;10.53;9.47;;;13.80;1.00;14.10;101853.00;;;;5003200;28;20481;-75
2021/10/08 09:08:36;;;;;;;8.50;7.60;;;14.00;1.00;14.20;101826.00;;;;5006263;28;20461;-77
2021/10/08 09:11:05;;;;;;;9.70;7.93;;;14.00;1.00;14.30;101843.00;;;;5008679;28;20545;-76
2021/10/08 09:13:34;;;;;;;10.20;7.50;;;14.10;1.00;14.40;101846.00;;;;5005899;28;20481;-76
2021/10/08 09:16:05;;;;;;;17.40;9.57;;;14.20;1.00;14.50;101841.00;;;;5007816;28;20507;-77
2021/10/08 09:18:37;;;;;;;9.57;7.80;;;14.30;1.00;14.60;101768.00;;;;5006603;28;20493;-77
2021/10/08 09:21:13;;;;;;;9.07;7.60;;;14.40;1.00;14.70;101846.00;;;;5008379;28;20449;-77
2021/10/08 09:23:46;;;;;;;11.70;8.47;;;14.50;1.00;14.80;101818.00;;;;5006926;28;20496;-77
2021/10/08 09:26:18;;;;;;;12.77;8.17;;;14.70;1.00;14.90;101828.00;;;;5007614;28;20473;-77
2021/10/08 09:28:59;;;;;;;8.83;7.93;;;14.80;1.00;15.00;101834.00;;;;5004276;28;20461;-76
2021/10/08 09:31:40;;;;;;;9.00;7.20;;;15.00;1.00;15.10;101842.00;;;;5008985;28;20580;-78
2021/10/08 09:34:14;;;;;;;8.00;7.10;;;15.20;1.00;15.30;101826.00;;;;5017986;28;20470;-75
2021/10/08 09:36:46;;;;;;;8.00;7.20;;;15.30;1.00;15.40;101669.00;;;;5005823;28;20476;-77
2021/10/08 09:39:19;;;;;;;8.67;7.40;;;15.40;1.00;15.30;101819.00;;;;5005838;28;21292;-77
2021/10/08 09:41:57;;;;;;;7.63;6.90;;;15.40;1.00;15.40;101817.00;;;;5004731;28;20477;-77
2021/10/08 09:44:27;;;;;;;10.10;8.07;;;15.50;1.00;15.50;101755.00;;;;5004105;28;20465;-76
2021/10/08 09:47:11;;;;;;;9.30;7.93;;;15.50;1.00;15.50;101813.00;;;;5019879;28;21029;-76
2021/10/08 09:49:40;;;;;;;8.70;6.60;;;15.50;1.00;15.60;101808.00;;;;5007921;28;20480;-76
2021/10/08 09:52:26;;;;;;;9.00;6.77;;;15.60;1.00;15.80;101815.00;;;;5009148;28;20488;-76
2021/10/08 09:54:57;;;;;;;9.53;6.97;;;15.80;1.00;15.50;101816.00;;;;5010318;28;20961;-77
2021/10/08 09:57:26;;;;;;;8.27;7.30;;;16.00;1.00;16.00;101813.00;;;;5017638;28;20485;-77
2021/10/08 09:59:56;;;;;;;8.03;7.10;;;16.10;1.00;16.00;101817.00;;;;5016413;28;20511;-77
2021/10/08 10:02:26;;;;;;;7.37;6.67;;;16.00;1.00;15.80;101818.00;;;;5016259;28;20573;-77
2021/10/08 10:04:59;;;;;;;11.43;6.97;;;15.70;1.00;15.70;101810.00;;;;5022494;28;20541;-77
2021/10/08 10:07:29;;;;;;;11.23;8.40;;;15.70;1.00;15.70;101710.00;;;;5004826;28;20512;-77
2021/10/08 10:09:58;;;;;;;10.23;7.00;;;15.70;1.00;16.10;101811.00;;;;5006211;28;20454;-77
2021/10/08 10:12:36;;;;;;;8.53;7.50;;;16.10;1.00;16.50;101806.00;;;;5002842;28;20520;-76
2021/10/08 10:15:07;;;;;;;7.50;6.63;;;16.30;1.00;16.80;101800.00;;;;5005247;28;20557;-77
2021/10/08 10:17:38;;;;;;;10.20;6.73;;;16.50;1.00;17.10;101802.00;;;;5006044;28;20596;-77
2021/10/08 10:20:10;;;;;;;7.53;6.93;;;16.70;1.00;17.30;101800.00;;;;5004625;28;20573;-77
2021/10/08 10:22:41;;;;;;;9.07;6.50;;;16.80;1.00;17.40;101796.00;;;;5005810;28;20501;-79
2021/10/08 10:25:13;;;;;;;12.33;7.20;;;16.90;1.00;17.60;101805.00;;;;5023245;28;20477;-78
2021/10/08 10:27:43;;;;;;;9.20;7.00;;;17.00;1.00;17.60;101800.00;;;;5007660;28;20495;-78
2021/10/08 10:30:12;;;;;;;7.27;6.57;;;17.10;1.00;17.70;101780.00;;;;5006908;28;20882;-78
2021/10/08 10:32:47;;;;;;;7.67;6.10;;;17.10;1.00;17.80;101759.00;;;;5006156;28;20473;-77
2021/10/08 10:35:46;;;;;;;7.43;6.50;;;17.10;1.00;17.80;101803.00;;;;5020019;28;20853;-80
2021/10/08 10:38:31;;;;;;;7.47;6.77;;;17.30;1.00;17.90;101803.00;;;;4987341;28;20455;-80
2021/10/08 10:41:29;;;;;;;7.20;6.00;;;17.30;1.00;17.90;101816.00;;;;5006806;28;20460;-81
2021/10/08 10:44:18;;;;;;;7.93;6.30;;;17.30;1.00;17.90;101798.00;;;;5004622;28;20474;-80
2021/10/08 10:49:39;;;;;;;6.57;5.90;;;17.30;1.00;18.00;101822.00;;;;5017051;28;20504;-80
2021/10/08 10:52:21;;;;;;;9.33;5.97;;;17.40;1.00;18.10;101816.00;;;;5013661;28;20464;-80
2021/10/08 10:55:08;;;;;;;8.53;7.13;;;17.50;1.00;18.10;101824.00;;;;5027520;28;20449;-78
2021/10/08 10:58:02;;;;;;;7.40;6.50;;;17.50;1.00;18.20;101824.00;;;;5018590;28;20473;-79
2021/10/08 11:00:44;;;;;;;9.73;7.33;;;17.60;1.00;18.30;101814.00;;;;5014908;28;20504;-78
2021/10/08 11:03:16;;;;;;;7.23;6.50;;;17.60;1.00;18.40;101822.00;;;;5023339;28;20504;-79
2021/10/08 11:06:10;;;;;;;8.13;6.77;;;17.60;1.00;18.40;101816.00;;;;5019328;28;20466;-79
2021/10/08 11:09:20;;;;;;;12.77;8.53;;;17.80;1.00;18.70;101820.00;;;;5010153;28;20457;-79